DFFD/OUA METAR and TAF weather

Enter ICAO airport designator
Station Type Date Time Source
DFFD METAR 2023/12/09 12:00 UTC NOAA

DFFD 091200Z 03015KT CAVOK 35/00 Q1013 NOSIG


Station Type Date Time Source
DFFD Decoded METAR 2023/12/09 12:00 UTC NOAA

Ouagadougou, Burkina Faso (DFFD) 12-21N 001-31W 306M
Dec 09, 2023 - 07:00 AM EST / 2023.12.09 1200 UTC
Wind: from the NNE (030 degrees) at 17 MPH (15 KT):0
Visibility: greater than 7 mile(s):0
Temperature: 95 F (35 C)
Dew Point: 32 F (0 C)
Relative Humidity: 10%
Pressure (altimeter): 29.91 in. Hg (1013 hPa)
ob: DFFD 091200Z 03015KT CAVOK 35/00 Q1013 NOSIG
cycle: 12

Station Type Date Time Source
DFFD TAF 2023/12/09 12:13 UTC NOAA

TAF DFFD 091100Z 0912/1018 04010KT 8000 NSC
TEMPO 0916/0921 4000 HZ
TEMPO 1006/1010 3500 HZ

Example: see airport list